sensor_id;sensor_type;location;lat;lon;timestamp;pressure;altitude;pressure_sealevel;temperature;humidity
28344;BME280;15597;50.914;6.638;2022-10-31T00:00:30;101289.09;;;19.70;51.80
28344;BME280;15597;50.914;6.638;2022-10-31T00:02:56;101302.44;;;19.68;51.69
28344;BME280;15597;50.914;6.638;2022-10-31T00:05:21;101299.00;;;19.66;51.86
28344;BME280;15597;50.914;6.638;2022-10-31T00:07:52;101296.56;;;19.62;51.75
28344;BME280;15597;50.914;6.638;2022-10-31T00:10:18;101301.72;;;19.65;51.78
28344;BME280;15597;50.914;6.638;2022-10-31T00:12:44;101290.38;;;19.61;51.94
28344;BME280;15597;50.914;6.638;2022-10-31T00:15:11;101292.25;;;19.59;51.85
28344;BME280;15597;50.914;6.638;2022-10-31T00:17:37;101290.53;;;19.58;51.92
28344;BME280;15597;50.914;6.638;2022-10-31T00:20:03;101278.19;;;19.57;51.84
28344;BME280;15597;50.914;6.638;2022-10-31T00:22:30;101297.72;;;19.56;51.84
28344;BME280;15597;50.914;6.638;2022-10-31T00:24:56;101301.16;;;19.58;52.04
28344;BME280;15597;50.914;6.638;2022-10-31T00:27:22;101299.44;;;19.57;51.84
28344;BME280;15597;50.914;6.638;2022-10-31T00:29:50;101307.41;;;19.57;51.83
28344;BME280;15597;50.914;6.638;2022-10-31T00:32:17;101318.06;;;19.55;51.86
28344;BME280;15597;50.914;6.638;2022-10-31T00:34:45;101331.44;;;19.54;51.88
28344;BME280;15597;50.914;6.638;2022-10-31T00:37:11;101331.50;;;19.52;52.07
28344;BME280;15597;50.914;6.638;2022-10-31T00:39:37;101334.28;;;19.49;52.13
28344;BME280;15597;50.914;6.638;2022-10-31T00:42:03;101326.41;;;19.48;52.11
28344;BME280;15597;50.914;6.638;2022-10-31T00:44:29;101321.25;;;19.45;52.34
28344;BME280;15597;50.914;6.638;2022-10-31T00:46:56;101318.75;;;19.41;52.22
28344;BME280;15597;50.914;6.638;2022-10-31T00:49:22;101307.34;;;19.39;52.23
28344;BME280;15597;50.914;6.638;2022-10-31T00:51:48;101313.59;;;19.38;52.79
28344;BME280;15597;50.914;6.638;2022-10-31T00:54:14;101319.03;;;19.35;52.58
28344;BME280;15597;50.914;6.638;2022-10-31T00:56:40;101313.78;;;19.34;52.75
28344;BME280;15597;50.914;6.638;2022-10-31T00:59:06;101306.75;;;19.33;52.56
28344;BME280;15597;50.914;6.638;2022-10-31T01:01:33;101311.22;;;19.32;52.62
28344;BME280;15597;50.914;6.638;2022-10-31T01:04:00;101303.25;;;19.32;52.68
28344;BME280;15597;50.914;6.638;2022-10-31T01:06:26;101292.72;;;19.31;52.56
28344;BME280;15597;50.914;6.638;2022-10-31T01:08:55;101304.19;;;19.31;52.60
28344;BME280;15597;50.914;6.638;2022-10-31T01:11:22;101302.31;;;19.33;52.54
28344;BME280;15597;50.914;6.638;2022-10-31T01:13:53;101302.47;;;19.30;52.63
28344;BME280;15597;50.914;6.638;2022-10-31T01:16:21;101295.44;;;19.29;52.66
28344;BME280;15597;50.914;6.638;2022-10-31T01:18:49;101295.44;;;19.29;52.71
28344;BME280;15597;50.914;6.638;2022-10-31T01:21:18;101297.16;;;19.30;52.60
28344;BME280;15597;50.914;6.638;2022-10-31T01:23:43;101291.88;;;19.30;52.66
28344;BME280;15597;50.914;6.638;2022-10-31T01:26:21;101293.09;;;19.23;52.77
28344;BME280;15597;50.914;6.638;2022-10-31T01:28:49;101298.31;;;19.24;52.92
28344;BME280;15597;50.914;6.638;2022-10-31T01:31:17;101286.06;;;19.22;52.71
28344;BME280;15597;50.914;6.638;2022-10-31T01:33:43;101273.72;;;19.21;52.83
28344;BME280;15597;50.914;6.638;2022-10-31T01:38:42;101271.13;;;19.19;52.95
28344;BME280;15597;50.914;6.638;2022-10-31T01:41:10;101274.66;;;19.20;52.86
28344;BME280;15597;50.914;6.638;2022-10-31T01:43:50;101268.47;;;19.00;53.01
28344;BME280;15597;50.914;6.638;2022-10-31T01:46:21;101270.03;;;19.04;53.07
28344;BME280;15597;50.914;6.638;2022-10-31T01:48:48;101266.31;;;19.08;52.90
28344;BME280;15597;50.914;6.638;2022-10-31T01:51:15;101262.75;;;19.09;52.95
28344;BME280;15597;50.914;6.638;2022-10-31T01:53:44;101268.97;;;19.08;52.92
28344;BME280;15597;50.914;6.638;2022-10-31T01:56:12;101271.72;;;19.07;52.90
28344;BME280;15597;50.914;6.638;2022-10-31T01:58:39;101269.09;;;19.05;52.85
28344;BME280;15597;50.914;6.638;2022-10-31T02:01:05;101267.38;;;19.04;52.70
28344;BME280;15597;50.914;6.638;2022-10-31T02:03:31;101271.84;;;19.04;52.92
28344;BME280;15597;50.914;6.638;2022-10-31T02:05:58;101276.38;;;19.02;52.59
28344;BME280;15597;50.914;6.638;2022-10-31T02:08:29;101273.91;;;18.97;52.98
28344;BME280;15597;50.914;6.638;2022-10-31T02:10:57;101274.78;;;18.97;53.03
28344;BME280;15597;50.914;6.638;2022-10-31T02:13:24;101275.75;;;18.95;53.03
28344;BME280;15597;50.914;6.638;2022-10-31T02:15:55;101291.78;;;18.92;53.18
28344;BME280;15597;50.914;6.638;2022-10-31T02:18:26;101293.59;;;18.91;52.99
28344;BME280;15597;50.914;6.638;2022-10-31T02:29:52;101282.34;;;18.86;53.24
28344;BME280;15597;50.914;6.638;2022-10-31T02:32:27;101280.75;;;18.82;53.17
28344;BME280;15597;50.914;6.638;2022-10-31T02:37:51;101287.91;;;18.80;53.22
28344;BME280;15597;50.914;6.638;2022-10-31T02:40:27;101285.28;;;18.80;53.20
28344;BME280;15597;50.914;6.638;2022-10-31T02:43:27;101286.13;;;18.80;53.11
28344;BME280;15597;50.914;6.638;2022-10-31T02:48:37;101281.75;;;18.79;53.09
28344;BME280;15597;50.914;6.638;2022-10-31T02:51:05;101280.75;;;18.82;52.97
28344;BME280;15597;50.914;6.638;2022-10-31T02:53:36;101272.00;;;18.80;53.08
28344;BME280;15597;50.914;6.638;2022-10-31T02:56:16;101276.72;;;18.73;53.04
28344;BME280;15597;50.914;6.638;2022-10-31T02:58:56;101281.31;;;18.69;53.09
28344;BME280;15597;50.914;6.638;2022-10-31T03:07:19;101276.16;;;18.66;52.91
28344;BME280;15597;50.914;6.638;2022-10-31T03:10:05;101283.31;;;18.64;53.15
28344;BME280;15597;50.914;6.638;2022-10-31T03:12:42;101282.50;;;18.62;53.31
28344;BME280;15597;50.914;6.638;2022-10-31T03:15:19;101284.28;;;18.62;53.25
28344;BME280;15597;50.914;6.638;2022-10-31T03:17:52;101284.16;;;18.65;53.28
28344;BME280;15597;50.914;6.638;2022-10-31T03:20:23;101281.53;;;18.44;53.62
28344;BME280;15597;50.914;6.638;2022-10-31T03:22:50;101292.66;;;18.52;53.52
28344;BME280;15597;50.914;6.638;2022-10-31T03:25:16;101297.03;;;18.53;53.64
28344;BME280;15597;50.914;6.638;2022-10-31T03:27:43;101290.78;;;18.54;53.54
28344;BME280;15597;50.914;6.638;2022-10-31T03:30:12;101288.13;;;18.54;53.64
28344;BME280;15597;50.914;6.638;2022-10-31T03:32:57;101281.25;;;18.50;53.63
28344;BME280;15597;50.914;6.638;2022-10-31T03:35:29;101272.38;;;18.51;53.83
28344;BME280;15597;50.914;6.638;2022-10-31T03:37:56;101282.09;;;18.51;53.64
28344;BME280;15597;50.914;6.638;2022-10-31T03:40:27;101274.09;;;18.52;53.48
28344;BME280;15597;50.914;6.638;2022-10-31T03:43:06;101264.56;;;18.48;53.64
28344;BME280;15597;50.914;6.638;2022-10-31T03:45:40;101270.66;;;18.50;53.53
28344;BME280;15597;50.914;6.638;2022-10-31T03:48:07;101259.03;;;18.53;53.70
28344;BME280;15597;50.914;6.638;2022-10-31T03:53:32;101266.41;;;18.46;53.80
28344;BME280;15597;50.914;6.638;2022-10-31T03:56:04;101271.72;;;18.46;53.61
28344;BME280;15597;50.914;6.638;2022-10-31T03:58:45;101262.03;;;18.45;53.55
28344;BME280;15597;50.914;6.638;2022-10-31T04:01:15;101267.34;;;18.45;53.72
28344;BME280;15597;50.914;6.638;2022-10-31T04:03:44;101262.03;;;18.45;53.67
28344;BME280;15597;50.914;6.638;2022-10-31T04:06:13;101266.47;;;18.45;53.71
28344;BME280;15597;50.914;6.638;2022-10-31T04:08:57;101272.00;;;18.40;53.72
28344;BME280;15597;50.914;6.638;2022-10-31T04:11:29;101271.84;;;18.43;53.89
28344;BME280;15597;50.914;6.638;2022-10-31T04:14:24;101267.63;;;18.39;53.98
28344;BME280;15597;50.914;6.638;2022-10-31T04:16:51;101267.47;;;18.42;53.97
28344;BME280;15597;50.914;6.638;2022-10-31T04:19:21;101267.63;;;18.39;53.85
28344;BME280;15597;50.914;6.638;2022-10-31T04:21:46;101264.19;;;18.37;53.81
28344;BME280;15597;50.914;6.638;2022-10-31T04:24:12;101269.47;;;18.37;54.05
28344;BME280;15597;50.914;6.638;2022-10-31T04:26:39;101271.19;;;18.38;54.04
28344;BME280;15597;50.914;6.638;2022-10-31T04:29:05;101268.69;;;18.35;54.09
28344;BME280;15597;50.914;6.638;2022-10-31T04:31:31;101261.66;;;18.34;53.96
28344;BME280;15597;50.914;6.638;2022-10-31T04:33:59;101258.13;;;18.33;53.91
28344;BME280;15597;50.914;6.638;2022-10-31T04:36:24;101255.56;;;18.32;53.86
28344;BME280;15597;50.914;6.638;2022-10-31T04:38:50;101259.00;;;18.34;54.09
28344;BME280;15597;50.914;6.638;2022-10-31T04:41:34;101254.63;;;18.33;54.33
28344;BME280;15597;50.914;6.638;2022-10-31T04:44:06;101248.41;;;18.34;53.97
28344;BME280;15597;50.914;6.638;2022-10-31T04:46:32;101239.66;;;18.32;54.15
28344;BME280;15597;50.914;6.638;2022-10-31T04:48:58;101241.41;;;18.33;54.18
28344;BME280;15597;50.914;6.638;2022-10-31T04:51:24;101243.91;;;18.36;54.12
28344;BME280;15597;50.914;6.638;2022-10-31T04:53:50;101235.97;;;18.36;53.87
28344;BME280;15597;50.914;6.638;2022-10-31T04:56:27;101237.81;;;18.34;53.94
28344;BME280;15597;50.914;6.638;2022-10-31T04:58:59;101245.63;;;18.37;53.97
28344;BME280;15597;50.914;6.638;2022-10-31T05:01:28;101244.88;;;18.33;54.11
28344;BME280;15597;50.914;6.638;2022-10-31T05:03:55;101241.44;;;18.31;53.93
28344;BME280;15597;50.914;6.638;2022-10-31T05:06:20;101244.03;;;18.33;54.01
28344;BME280;15597;50.914;6.638;2022-10-31T05:08:46;101239.66;;;18.32;54.03
28344;BME280;15597;50.914;6.638;2022-10-31T05:11:12;101244.97;;;18.32;53.88
28344;BME280;15597;50.914;6.638;2022-10-31T05:13:38;101244.19;;;18.30;54.14
28344;BME280;15597;50.914;6.638;2022-10-31T05:16:13;101237.22;;;18.27;54.17
28344;BME280;15597;50.914;6.638;2022-10-31T05:19:17;101237.28;;;18.25;54.07
28344;BME280;15597;50.914;6.638;2022-10-31T05:22:14;101229.47;;;18.22;54.23
28344;BME280;15597;50.914;6.638;2022-10-31T05:24:40;101229.34;;;18.25;54.40
28344;BME280;15597;50.914;6.638;2022-10-31T05:27:28;101224.19;;;18.22;54.15
28344;BME280;15597;50.914;6.638;2022-10-31T05:30:18;101227.75;;;18.21;54.29
28344;BME280;15597;50.914;6.638;2022-10-31T05:32:46;101218.75;;;18.25;54.20
28344;BME280;15597;50.914;6.638;2022-10-31T05:35:35;101220.38;;;18.28;54.03
28344;BME280;15597;50.914;6.638;2022-10-31T05:38:27;101217.97;;;18.23;54.03
28344;BME280;15597;50.914;6.638;2022-10-31T05:40:55;101219.72;;;18.23;54.20
28344;BME280;15597;50.914;6.638;2022-10-31T05:43:28;101229.34;;;18.25;54.32
28344;BME280;15597;50.914;6.638;2022-10-31T05:45:55;101227.63;;;18.24;54.16
28344;BME280;15597;50.914;6.638;2022-10-31T05:48:56;101230.31;;;18.23;54.08
28344;BME280;15597;50.914;6.638;2022-10-31T05:51:40;101230.31;;;18.23;54.20
28344;BME280;15597;50.914;6.638;2022-10-31T05:54:14;101220.53;;;18.04;54.30
28344;BME280;15597;50.914;6.638;2022-10-31T05:56:41;101216.78;;;18.10;54.21
28344;BME280;15597;50.914;6.638;2022-10-31T05:59:06;101223.56;;;18.16;54.17
28344;BME280;15597;50.914;6.638;2022-10-31T06:01:32;101226.88;;;18.21;54.03
28344;BME280;15597;50.914;6.638;2022-10-31T06:04:03;101222.59;;;18.18;53.93
28344;BME280;15597;50.914;6.638;2022-10-31T06:06:30;101219.03;;;18.19;54.07
28344;BME280;15597;50.914;6.638;2022-10-31T06:08:56;101219.81;;;18.21;54.06
28344;BME280;15597;50.914;6.638;2022-10-31T06:11:22;101222.59;;;18.18;54.05
28344;BME280;15597;50.914;6.638;2022-10-31T06:14:04;101223.53;;;18.17;54.16
28344;BME280;15597;50.914;6.638;2022-10-31T06:16:44;101218.34;;;18.14;54.15
28344;BME280;15597;50.914;6.638;2022-10-31T06:19:39;101221.16;;;18.11;54.30
28344;BME280;15597;50.914;6.638;2022-10-31T06:22:04;101207.16;;;18.07;54.12
28344;BME280;15597;50.914;6.638;2022-10-31T06:24:31;101221.28;;;18.08;54.11
28344;BME280;15597;50.914;6.638;2022-10-31T06:27:02;101215.06;;;18.09;54.02
28344;BME280;15597;50.914;6.638;2022-10-31T06:29:28;101212.44;;;18.07;54.23
28344;BME280;15597;50.914;6.638;2022-10-31T06:32:04;101215.22;;;18.04;54.20
28344;BME280;15597;50.914;6.638;2022-10-31T06:34:33;101198.59;;;18.01;54.13
28344;BME280;15597;50.914;6.638;2022-10-31T06:36:59;101203.91;;;18.01;53.98
28344;BME280;15597;50.914;6.638;2022-10-31T06:39:26;101193.34;;;17.99;54.36
28344;BME280;15597;50.914;6.638;2022-10-31T06:41:52;101192.47;;;18.00;54.23
28344;BME280;15597;50.914;6.638;2022-10-31T06:44:31;101201.31;;;17.99;54.41
28344;BME280;15597;50.914;6.638;2022-10-31T06:46:57;101212.81;;;17.98;54.48
28344;BME280;15597;50.914;6.638;2022-10-31T06:49:48;101213.00;;;17.93;54.53
28344;BME280;15597;50.914;6.638;2022-10-31T06:52:16;101212.94;;;17.95;54.43
28344;BME280;15597;50.914;6.638;2022-10-31T06:54:41;101215.50;;;17.96;54.54
28344;BME280;15597;50.914;6.638;2022-10-31T06:57:07;101220.69;;;18.00;54.37
28344;BME280;15597;50.914;6.638;2022-10-31T06:59:33;101214.50;;;18.01;54.12
28344;BME280;15597;50.914;6.638;2022-10-31T07:02:03;101218.16;;;17.96;54.42
28344;BME280;15597;50.914;6.638;2022-10-31T07:04:29;101231.25;;;18.01;54.69
28344;BME280;15597;50.914;6.638;2022-10-31T07:06:56;101234.03;;;17.96;54.39
28344;BME280;15597;50.914;6.638;2022-10-31T07:09:21;101234.03;;;17.96;54.51
28344;BME280;15597;50.914;6.638;2022-10-31T07:11:47;101240.97;;;18.01;54.33
28344;BME280;15597;50.914;6.638;2022-10-31T07:14:13;101233.22;;;17.96;54.49
28344;BME280;15597;50.914;6.638;2022-10-31T07:16:39;101235.78;;;17.98;54.67
28344;BME280;15597;50.914;6.638;2022-10-31T07:19:05;101235.78;;;17.98;54.55
28344;BME280;15597;50.914;6.638;2022-10-31T07:21:31;101235.78;;;17.98;54.36
28344;BME280;15597;50.914;6.638;2022-10-31T07:23:56;101236.66;;;17.98;54.49
28344;BME280;15597;50.914;6.638;2022-10-31T07:26:40;101216.69;;;17.89;54.60
28344;BME280;15597;50.914;6.638;2022-10-31T07:29:08;101231.47;;;17.95;54.54
28344;BME280;15597;50.914;6.638;2022-10-31T07:31:33;101228.88;;;17.93;54.53
28344;BME280;15597;50.914;6.638;2022-10-31T07:34:04;101232.59;;;17.89;54.65
28344;BME280;15597;50.914;6.638;2022-10-31T07:36:30;101232.47;;;17.92;54.88
28344;BME280;15597;50.914;6.638;2022-10-31T07:39:00;101237.69;;;17.94;54.80
28344;BME280;15597;50.914;6.638;2022-10-31T07:41:29;101239.44;;;17.95;54.72
28344;BME280;15597;50.914;6.638;2022-10-31T07:43:55;101243.63;;;18.01;54.50
28344;BME280;15597;50.914;6.638;2022-10-31T07:46:40;101238.38;;;17.99;54.79
28344;BME280;15597;50.914;6.638;2022-10-31T07:49:25;101238.53;;;17.94;54.86
28344;BME280;15597;50.914;6.638;2022-10-31T07:52:29;101236.91;;;17.92;54.73
28344;BME280;15597;50.914;6.638;2022-10-31T07:55:00;101238.53;;;17.94;54.94
28344;BME280;15597;50.914;6.638;2022-10-31T07:57:26;101237.50;;;17.99;55.00
28344;BME280;15597;50.914;6.638;2022-10-31T07:59:52;101243.63;;;18.01;54.95
28344;BME280;15597;50.914;6.638;2022-10-31T08:02:18;101233.03;;;18.01;54.69
28344;BME280;15597;50.914;6.638;2022-10-31T08:04:55;101233.84;;;18.03;54.86
28344;BME280;15597;50.914;6.638;2022-10-31T08:07:39;101225.97;;;18.01;54.99
28344;BME280;15597;50.914;6.638;2022-10-31T08:10:11;101224.34;;;17.97;55.04
28344;BME280;15597;50.914;6.638;2022-10-31T08:12:39;101233.91;;;18.00;55.16
28344;BME280;15597;50.914;6.638;2022-10-31T08:15:07;101235.66;;;18.01;55.12
28344;BME280;15597;50.914;6.638;2022-10-31T08:17:37;101230.47;;;17.98;55.17
28344;BME280;15597;50.914;6.638;2022-10-31T08:20:04;101230.38;;;18.01;55.10
28344;BME280;15597;50.914;6.638;2022-10-31T08:22:33;101239.06;;;18.04;55.20
28344;BME280;15597;50.914;6.638;2022-10-31T08:25:00;101239.81;;;18.08;55.11
28344;BME280;15597;50.914;6.638;2022-10-31T08:27:26;101242.31;;;18.11;54.93
28344;BME280;15597;50.914;6.638;2022-10-31T08:29:53;101228.28;;;18.09;55.02
28344;BME280;15597;50.914;6.638;2022-10-31T08:32:21;101224.72;;;18.10;55.13
28344;BME280;15597;50.914;6.638;2022-10-31T08:35:10;101231.88;;;18.08;55.08
28344;BME280;15597;50.914;6.638;2022-10-31T08:38:12;101226.56;;;18.08;55.26
28344;BME280;15597;50.914;6.638;2022-10-31T08:40:40;101218.53;;;18.09;55.34
28344;BME280;15597;50.914;6.638;2022-10-31T08:43:12;101221.19;;;18.09;55.48
28344;BME280;15597;50.914;6.638;2022-10-31T08:45:38;101222.72;;;18.15;55.47
28344;BME280;15597;50.914;6.638;2022-10-31T08:48:13;101216.63;;;18.13;55.43
28344;BME280;15597;50.914;6.638;2022-10-31T08:50:41;101212.00;;;18.18;55.50
28344;BME280;15597;50.914;6.638;2022-10-31T08:53:10;101206.56;;;18.21;55.59
28344;BME280;15597;50.914;6.638;2022-10-31T08:55:41;101203.03;;;18.21;55.68
28344;BME280;15597;50.914;6.638;2022-10-31T08:58:22;101213.72;;;18.19;55.77
28344;BME280;15597;50.914;6.638;2022-10-31T09:00:53;101204.84;;;18.20;55.91
28344;BME280;15597;50.914;6.638;2022-10-31T09:03:22;101192.41;;;18.22;55.72
28344;BME280;15597;50.914;6.638;2022-10-31T09:05:49;101191.38;;;18.25;55.67
28344;BME280;15597;50.914;6.638;2022-10-31T09:08:16;101181.81;;;18.22;56.01
28344;BME280;15597;50.914;6.638;2022-10-31T09:10:43;101181.66;;;18.25;56.00
28344;BME280;15597;50.914;6.638;2022-10-31T09:13:11;101174.66;;;18.24;56.10
28344;BME280;15597;50.914;6.638;2022-10-31T09:15:38;101168.31;;;18.08;56.39
28344;BME280;15597;50.914;6.638;2022-10-31T09:18:23;101166.09;;;17.97;56.58
28344;BME280;15597;50.914;6.638;2022-10-31T09:20:57;101171.09;;;18.05;57.20
28344;BME280;15597;50.914;6.638;2022-10-31T09:23:23;101169.91;;;18.12;56.55
28344;BME280;15597;50.914;6.638;2022-10-31T09:25:51;101165.41;;;18.14;56.64
28344;BME280;15597;50.914;6.638;2022-10-31T09:28:35;101166.88;;;18.20;56.92
28344;BME280;15597;50.914;6.638;2022-10-31T09:31:09;101152.72;;;18.21;56.59
28344;BME280;15597;50.914;6.638;2022-10-31T09:33:49;101150.03;;;18.22;56.69
28344;BME280;15597;50.914;6.638;2022-10-31T09:36:44;101150.03;;;18.22;56.90
28344;BME280;15597;50.914;6.638;2022-10-31T09:39:19;101148.88;;;18.28;56.89
28344;BME280;15597;50.914;6.638;2022-10-31T09:45:35;101136.63;;;18.25;57.05
28344;BME280;15597;50.914;6.638;2022-10-31T09:54:17;101115.44;;;18.25;57.55
28344;BME280;15597;50.914;6.638;2022-10-31T09:56:44;101120.19;;;18.38;57.38
28344;BME280;15597;50.914;6.638;2022-10-31T09:59:19;101106.66;;;18.44;57.36
28344;BME280;15597;50.914;6.638;2022-10-31T10:02:16;101112.75;;;18.46;57.35
28344;BME280;15597;50.914;6.638;2022-10-31T10:04:46;101095.63;;;18.53;57.46
28344;BME280;15597;50.914;6.638;2022-10-31T10:19:17;101062.94;;;18.72;57.57
28344;BME280;15597;50.914;6.638;2022-10-31T10:22:08;101061.94;;;18.75;57.50
28344;BME280;15597;50.914;6.638;2022-10-31T10:24:59;101058.91;;;18.82;57.56
28344;BME280;15597;50.914;6.638;2022-10-31T10:29:55;101052.72;;;19.01;57.37
28344;BME280;15597;50.914;6.638;2022-10-31T10:32:27;101070.03;;;19.08;57.33
28344;BME280;15597;50.914;6.638;2022-10-31T10:34:59;101069.00;;;19.12;57.13
28344;BME280;15597;50.914;6.638;2022-10-31T10:37:32;101071.34;;;19.19;57.23
28344;BME280;15597;50.914;6.638;2022-10-31T10:40:11;101071.19;;;19.22;57.15
28344;BME280;15597;50.914;6.638;2022-10-31T10:42:40;101064.63;;;19.29;57.04
28344;BME280;15597;50.914;6.638;2022-10-31T10:45:33;101056.66;;;19.29;57.13
28344;BME280;15597;50.914;6.638;2022-10-31T10:48:30;101052.44;;;19.25;57.20
28344;BME280;15597;50.914;6.638;2022-10-31T10:51:01;101037.16;;;19.30;57.30
28344;BME280;15597;50.914;6.638;2022-10-31T10:59:20;101064.63;;;19.47;56.94
28344;BME280;15597;50.914;6.638;2022-10-31T11:01:49;101066.94;;;19.53;56.78
28344;BME280;15597;50.914;6.638;2022-10-31T11:07:07;101084.22;;;19.62;56.71
28344;BME280;15597;50.914;6.638;2022-10-31T11:09:34;101079.25;;;19.71;56.76
28344;BME280;15597;50.914;6.638;2022-10-31T11:12:58;101054.44;;;19.73;56.74
28344;BME280;15597;50.914;6.638;2022-10-31T11:14:57;101052.38;;;19.78;56.73
28344;BME280;15597;50.914;6.638;2022-10-31T11:17:31;101057.38;;;19.84;56.42
28344;BME280;15597;50.914;6.638;2022-10-31T11:20:33;101050.19;;;19.86;56.70
28344;BME280;15597;50.914;6.638;2022-10-31T11:23:19;101027.22;;;19.85;56.51
28344;BME280;15597;50.914;6.638;2022-10-31T11:28:20;101016.13;;;19.94;56.17
28344;BME280;15597;50.914;6.638;2022-10-31T11:30:57;101011.00;;;19.91;56.43
28344;BME280;15597;50.914;6.638;2022-10-31T11:33:36;101008.09;;;19.96;56.44
28344;BME280;15597;50.914;6.638;2022-10-31T11:36:15;100998.16;;;19.99;56.50
28344;BME280;15597;50.914;6.638;2022-10-31T11:38:42;100994.91;;;20.10;56.17
28344;BME280;15597;50.914;6.638;2022-10-31T11:41:15;100987.63;;;20.14;56.41
28344;BME280;15597;50.914;6.638;2022-10-31T11:43:49;100980.34;;;20.18;55.99
28344;BME280;15597;50.914;6.638;2022-10-31T11:46:21;100982.75;;;20.22;55.88
28344;BME280;15597;50.914;6.638;2022-10-31T11:48:49;100972.81;;;20.26;56.09
28344;BME280;15597;50.914;6.638;2022-10-31T11:51:31;100964.06;;;20.24;56.04
28344;BME280;15597;50.914;6.638;2022-10-31T11:53:59;100967.31;;;20.29;56.01
28344;BME280;15597;50.914;6.638;2022-10-31T11:56:37;100960.47;;;20.25;55.68
28344;BME280;15597;50.914;6.638;2022-10-31T11:59:05;100964.75;;;20.27;55.76
28344;BME280;15597;50.914;6.638;2022-10-31T12:01:40;100956.69;;;20.29;55.72
28344;BME280;15597;50.914;6.638;2022-10-31T12:04:12;100950.34;;;20.32;55.94
28344;BME280;15597;50.914;6.638;2022-10-31T12:06:43;100953.97;;;20.31;55.48
28344;BME280;15597;50.914;6.638;2022-10-31T12:09:27;100940.41;;;20.35;55.64
28344;BME280;15597;50.914;6.638;2022-10-31T12:12:30;100934.25;;;20.35;55.60
28344;BME280;15597;50.914;6.638;2022-10-31T12:17:39;100937.31;;;20.43;55.34
28344;BME280;15597;50.914;6.638;2022-10-31T12:23:18;100929.50;;;20.40;55.51
28344;BME280;15597;50.914;6.638;2022-10-31T12:25:54;100921.38;;;20.43;55.06
28344;BME280;15597;50.914;6.638;2022-10-31T12:28:45;100910.72;;;20.43;55.12
28344;BME280;15597;50.914;6.638;2022-10-31T12:31:28;100909.28;;;20.37;55.07
28344;BME280;15597;50.914;6.638;2022-10-31T12:34:26;100909.38;;;20.36;55.45
28344;BME280;15597;50.914;6.638;2022-10-31T12:40:18;100871.84;;;20.26;55.02
28344;BME280;15597;50.914;6.638;2022-10-31T12:45:49;100856.94;;;20.23;54.85
28344;BME280;15597;50.914;6.638;2022-10-31T12:48:55;100850.75;;;20.23;54.96
28344;BME280;15597;50.914;6.638;2022-10-31T12:57:19;100828.84;;;20.19;55.19
28344;BME280;15597;50.914;6.638;2022-10-31T13:00:13;100825.25;;;20.20;55.04
28344;BME280;15597;50.914;6.638;2022-10-31T13:02:54;100825.06;;;20.23;54.98
28344;BME280;15597;50.914;6.638;2022-10-31T13:05:31;100828.31;;;20.28;54.76
28344;BME280;15597;50.914;6.638;2022-10-31T13:08:02;100835.34;;;20.29;54.84
28344;BME280;15597;50.914;6.638;2022-10-31T13:10:36;100834.22;;;20.34;54.77
28344;BME280;15597;50.914;6.638;2022-10-31T13:13:25;100836.88;;;20.34;54.72
28344;BME280;15597;50.914;6.638;2022-10-31T13:16:09;100824.34;;;20.36;54.47
28344;BME280;15597;50.914;6.638;2022-10-31T13:18:44;100830.59;;;20.35;54.74
28344;BME280;15597;50.914;6.638;2022-10-31T13:21:21;100816.44;;;20.34;54.69
28344;BME280;15597;50.914;6.638;2022-10-31T13:23:50;100806.31;;;20.41;54.38
28344;BME280;15597;50.914;6.638;2022-10-31T13:29:00;100794.16;;;20.37;54.43
28344;BME280;15597;50.914;6.638;2022-10-31T13:31:27;100787.78;;;20.39;54.42
28344;BME280;15597;50.914;6.638;2022-10-31T13:33:57;100788.66;;;20.40;54.37
28344;BME280;15597;50.914;6.638;2022-10-31T13:36:41;100785.25;;;20.38;54.25
28344;BME280;15597;50.914;6.638;2022-10-31T13:41:47;100781.47;;;20.42;54.14
28344;BME280;15597;50.914;6.638;2022-10-31T13:44:21;100774.06;;;20.47;54.18
28344;BME280;15597;50.914;6.638;2022-10-31T13:46:50;100768.56;;;20.50;54.17
28344;BME280;15597;50.914;6.638;2022-10-31T13:54:48;100749.19;;;20.48;54.01
28344;BME280;15597;50.914;6.638;2022-10-31T13:59:56;100735.41;;;20.41;54.38
28344;BME280;15597;50.914;6.638;2022-10-31T14:02:35;100721.47;;;20.38;54.25
28344;BME280;15597;50.914;6.638;2022-10-31T14:05:06;100714.34;;;20.38;54.46
28344;BME280;15597;50.914;6.638;2022-10-31T14:07:45;100703.81;;;20.37;54.27
28344;BME280;15597;50.914;6.638;2022-10-31T14:13:04;100683.13;;;20.27;54.48
28344;BME280;15597;50.914;6.638;2022-10-31T14:15:31;100676.66;;;20.32;54.31
28344;BME280;15597;50.914;6.638;2022-10-31T14:18:00;100678.47;;;20.31;54.38
28344;BME280;15597;50.914;6.638;2022-10-31T14:20:39;100667.81;;;20.31;54.38
28344;BME280;15597;50.914;6.638;2022-10-31T14:31:42;100671.34;;;20.17;54.47
28344;BME280;15597;50.914;6.638;2022-10-31T14:37:06;100652.63;;;20.19;54.55
28344;BME280;15597;50.914;6.638;2022-10-31T14:50:55;100649.53;;;20.26;54.53
28344;BME280;15597;50.914;6.638;2022-10-31T14:53:26;100649.72;;;20.38;54.16
28344;BME280;15597;50.914;6.638;2022-10-31T14:55:55;100640.22;;;20.48;54.08
28344;BME280;15597;50.914;6.638;2022-10-31T14:58:24;100638.78;;;20.57;53.76
28344;BME280;15597;50.914;6.638;2022-10-31T15:00:56;100627.88;;;20.62;53.60
28344;BME280;15597;50.914;6.638;2022-10-31T15:03:30;100627.88;;;20.62;53.63
28344;BME280;15597;50.914;6.638;2022-10-31T15:06:00;100620.44;;;20.67;53.01
28344;BME280;15597;50.914;6.638;2022-10-31T15:08:59;100618.00;;;20.64;53.34
28344;BME280;15597;50.914;6.638;2022-10-31T15:11:26;100614.75;;;20.73;53.12
28344;BME280;15597;50.914;6.638;2022-10-31T15:13:56;100609.63;;;20.70;53.48
28344;BME280;15597;50.914;6.638;2022-10-31T15:16:27;100606.59;;;20.62;53.68